Time;durP1;ratioP1;P1;durP2;ratioP2;P2;SDS_P1;SDS_P2;PMS_P1;PMS_P2;Temp;Humidity;BMP_temperature;BMP_pressure;BME280_temperature;BME280_humidity;BME280_pressure;Samples;Min_cycle;Max_cycle;Signal;HPM_P1;HPM_P2
2022/12/15 00:39:03;;;;;;;31.57;11.95;;;;;;;0.33;71.30;101936.67;1888009;76;21054;-45
2022/12/15 00:41:31;;;;;;;30.25;10.38;;;;;;;0.33;71.34;101934.09;1886873;76;21069;-45
2022/12/15 00:44:00;;;;;;;33.10;12.25;;;;;;;0.36;71.36;101938.45;1886210;76;21053;-47
2022/12/15 01:20:18;;;;;;;36.63;11.68;;;;;;;0.21;71.82;101936.39;1893217;75;21014;-44
2022/12/15 01:22:50;;;;;;;30.30;12.60;;;;;;;0.20;71.95;101929.45;1877786;75;21109;-46
2022/12/15 01:25:21;;;;;;;35.00;13.88;;;;;;;0.22;71.91;101926.89;1890369;75;21107;-45
2022/12/15 01:27:50;;;;;;;33.48;12.78;;;;;;;0.19;71.80;101927.28;1886108;76;21444;-49
2022/12/15 01:30:24;;;;;;;44.67;15.58;;;;;;;0.17;71.78;101921.63;1887967;76;20978;-45
2022/12/15 01:32:53;;;;;;;34.23;13.10;;;;;;;0.15;71.79;101924.17;1887849;76;21018;-45
2022/12/15 01:35:22;;;;;;;35.33;13.40;;;;;;;0.17;71.90;101924.22;1919882;75;21110;-45
2022/12/15 01:37:51;;;;;;;36.33;11.88;;;;;;;0.21;71.98;101916.96;1918125;75;21407;-46
2022/12/15 01:43:23;;;;;;;38.80;12.45;;;;;;;0.31;72.01;101912.42;1920627;75;21129;-45
2022/12/15 01:45:54;;;;;;;35.25;11.60;;;;;;;0.34;72.06;101915.09;1856225;77;21134;-45
2022/12/15 01:48:32;;;;;;;45.05;13.00;;;;;;;0.38;72.02;101910.42;1855242;77;21026;-45
2022/12/15 01:51:16;;;;;;;55.70;17.35;;;;;;;0.43;72.06;101914.85;1856167;77;21503;-44
2022/12/15 01:53:53;;;;;;;42.83;13.10;;;;;;;0.48;72.20;101917.09;1856104;77;21024;-46
2022/12/15 01:56:25;;;;;;;37.67;14.10;;;;;;;0.53;72.22;101911.17;1847116;77;21088;-46
2022/12/15 01:58:57;;;;;;;41.88;12.73;;;;;;;0.58;72.19;101910.84;1856117;77;21459;-48
2022/12/15 02:01:25;;;;;;;39.30;14.33;;;;;;;0.61;72.14;101906.56;1867986;76;21055;-47
2022/12/15 02:03:55;;;;;;;36.98;11.90;;;;;;;0.63;72.29;101912.66;1880406;76;21122;-45
2022/12/15 02:06:26;;;;;;;35.48;13.43;;;;;;;0.64;72.26;101915.28;1875267;76;21137;-45
2022/12/15 02:08:57;;;;;;;38.73;16.02;;;;;;;0.66;72.21;101914.89;1875389;76;21039;-46
2022/12/15 02:11:35;;;;;;;41.53;15.23;;;;;;;0.66;72.14;101903.22;1875414;76;21491;-46
2022/12/15 02:14:07;;;;;;;43.10;16.37;;;;;;;0.68;72.19;101902.86;1902649;75;21075;-47
2022/12/15 02:16:50;;;;;;;26.80;13.38;;;;;;;0.68;72.22;101900.67;1855815;76;21032;-46
2022/12/15 02:19:28;;;;;;;38.65;16.97;;;;;;;0.70;72.19;101887.31;1881574;75;21022;-45
2022/12/15 02:22:02;;;;;;;29.48;12.23;;;;;;;0.72;72.19;101873.56;1882938;76;21022;-47
2022/12/15 02:24:37;;;;;;;31.82;10.25;;;;;;;0.71;72.22;101871.80;1874534;76;21046;-46
2022/12/15 02:27:14;;;;;;;30.45;8.98;;;;;;;0.74;72.20;101873.16;1884632;76;21033;-45
2022/12/15 02:30:12;;;;;;;30.35;11.30;;;;;;;0.78;72.21;101883.60;1852738;77;21115;-45
2022/12/15 02:32:46;;;;;;;22.87;10.53;;;;;;;0.76;72.39;101890.91;1883513;76;21054;-46
2022/12/15 02:35:23;;;;;;;30.08;10.45;;;;;;;0.79;72.47;101884.03;1886528;75;21485;-47
2022/12/15 02:37:53;;;;;;;19.70;9.18;;;;;;;0.82;72.33;101873.73;1852223;77;21566;-44
2022/12/15 02:40:22;;;;;;;24.70;10.75;;;;;;;0.84;72.33;101875.93;1853783;77;21088;-44
2022/12/15 02:42:53;;;;;;;30.40;10.32;;;;;;;0.83;72.31;101876.77;1813933;79;21090;-45
2022/12/15 02:45:25;;;;;;;32.90;12.18;;;;;;;0.86;72.33;101874.23;1813792;79;21086;-45
2022/12/15 02:48:09;;;;;;;26.75;11.10;;;;;;;0.88;72.25;101872.55;1813128;79;21066;-45
2022/12/15 02:50:46;;;;;;;29.95;10.98;;;;;;;0.89;72.21;101869.12;1813916;79;21127;-44
2022/12/15 02:53:26;;;;;;;26.95;10.15;;;;;;;0.88;72.18;101859.58;1813905;79;21129;-44
2022/12/15 02:56:13;;;;;;;27.25;10.48;;;;;;;0.88;72.17;101864.33;1813018;79;21555;-44
2022/12/15 02:59:11;;;;;;;33.18;12.13;;;;;;;0.90;72.16;101859.18;1751783;79;21145;-44
2022/12/15 03:02:01;;;;;;;34.53;12.00;;;;;;;0.93;72.15;101862.70;1826012;78;21170;-45
2022/12/15 03:04:32;;;;;;;31.55;11.22;;;;;;;0.96;72.13;101854.13;1811405;79;21067;-44
2022/12/15 03:07:06;;;;;;;38.53;12.78;;;;;;;0.95;72.22;101845.88;1817260;79;21091;-46
2022/12/15 03:09:35;;;;;;;38.85;13.22;;;;;;;0.98;72.22;101848.95;1817854;79;21124;-44
2022/12/15 03:12:04;;;;;;;32.25;11.05;;;;;;;1.00;72.28;101848.55;1798595;79;21038;-45
2022/12/15 03:14:34;;;;;;;31.87;10.65;;;;;;;1.01;72.32;101847.28;1814533;79;21130;-45
2022/12/15 03:17:05;;;;;;;25.52;10.70;;;;;;;1.02;72.41;101846.45;1817769;79;21209;-47
2022/12/15 03:19:33;;;;;;;27.27;8.50;;;;;;;1.03;72.41;101840.40;1817813;79;21122;-44
2022/12/15 03:22:03;;;;;;;23.35;8.68;;;;;;;1.04;72.42;101831.78;1817945;79;21178;-44
2022/12/15 03:24:32;;;;;;;31.48;10.88;;;;;;;1.05;72.35;101832.65;1794274;79;21492;-46
2022/12/15 03:27:00;;;;;;;16.42;8.13;;;;;;;1.05;72.28;101830.95;1788493;80;21053;-45
2022/12/15 03:29:29;;;;;;;34.67;10.85;;;;;;;1.07;72.29;101821.47;1788437;80;21066;-45
2022/12/15 03:31:57;;;;;;;31.93;10.68;;;;;;;1.06;72.30;101820.14;1778751;79;21030;-45
2022/12/15 03:34:26;;;;;;;20.50;9.10;;;;;;;1.01;72.40;101817.89;1780191;80;21090;-45
2022/12/15 03:36:55;;;;;;;22.13;8.45;;;;;;;0.99;72.43;101810.08;1759827;81;21119;-45
2022/12/15 03:39:23;;;;;;;10.78;7.03;;;;;;;0.97;72.44;101802.69;1787939;79;21119;-45
2022/12/15 03:41:52;;;;;;;17.15;8.30;;;;;;;0.94;72.61;101793.55;1819040;79;21203;-46
2022/12/15 03:44:21;;;;;;;21.27;8.30;;;;;;;0.91;72.72;101790.92;1798348;79;21130;-45
2022/12/15 03:46:50;;;;;;;25.10;9.30;;;;;;;0.88;72.83;101794.31;1786295;80;21078;-46
2022/12/15 03:49:19;;;;;;;20.52;7.95;;;;;;;0.89;72.87;101796.52;1771335;80;21113;-45
2022/12/15 03:51:48;;;;;;;25.20;9.58;;;;;;;0.89;72.85;101798.67;1761752;80;21216;-46
2022/12/15 03:54:17;;;;;;;22.32;9.33;;;;;;;0.89;72.87;101795.22;1775897;81;21129;-48
2022/12/15 03:56:45;;;;;;;28.47;11.08;;;;;;;0.91;72.90;101801.30;1821489;79;21124;-44
2022/12/15 03:59:14;;;;;;;22.95;9.53;;;;;;;0.92;72.87;101795.25;1812335;79;21051;-45
2022/12/15 04:01:47;;;;;;;24.02;9.25;;;;;;;0.94;72.83;101795.75;1816385;79;21607;-47
2022/12/15 04:04:16;;;;;;;33.02;10.43;;;;;;;0.96;72.77;101786.27;1817699;78;21067;-48
2022/12/15 04:06:45;;;;;;;27.77;10.63;;;;;;;0.99;72.74;101776.36;1788311;78;21114;-46
2022/12/15 04:09:14;;;;;;;27.75;10.28;;;;;;;1.01;72.73;101771.20;1854218;76;21580;-47
2022/12/15 04:11:43;;;;;;;28.73;10.43;;;;;;;1.03;72.74;101766.91;1854247;77;21618;-44
2022/12/15 04:14:12;;;;;;;26.95;9.53;;;;;;;1.05;72.79;101766.11;1852254;77;21094;-45
2022/12/15 04:16:40;;;;;;;27.13;10.53;;;;;;;1.06;72.83;101760.48;1848802;76;21078;-45
2022/12/15 04:21:56;;;;;;;23.22;10.75;;;;;;;1.08;72.86;101760.08;1852685;77;21172;-45
2022/12/15 05:34:00;;;;;;;38.67;11.10;;;;;;;1.35;74.16;101773.92;1888220;76;21468;-48
2022/12/15 05:36:29;;;;;;;28.67;9.30;;;;;;;1.38;74.01;101768.77;1887982;76;21025;-45
2022/12/15 05:38:58;;;;;;;24.32;9.90;;;;;;;1.42;73.96;101778.37;1887745;76;21436;-44
2022/12/15 05:41:27;;;;;;;25.43;8.80;;;;;;;1.47;73.88;101780.58;1888103;76;20997;-45
2022/12/15 05:43:55;;;;;;;31.35;10.32;;;;;;;1.51;73.80;101784.09;1888054;76;20994;-45
2022/12/15 05:46:24;;;;;;;27.85;9.93;;;;;;;1.51;73.83;101779.80;1887967;76;20998;-44
2022/12/15 05:48:53;;;;;;;30.32;10.80;;;;;;;1.52;73.87;101786.72;1887852;76;21593;-46
2022/12/15 05:51:22;;;;;;;26.07;8.95;;;;;;;1.58;73.97;101790.27;1888063;76;21460;-44
2022/12/15 05:53:51;;;;;;;31.85;9.83;;;;;;;1.63;73.82;101793.81;1888059;76;21022;-45
2022/12/15 05:56:20;;;;;;;25.40;9.60;;;;;;;1.67;73.69;101795.59;1888204;76;21065;-43
2022/12/15 05:58:48;;;;;;;22.40;7.60;;;;;;;1.69;73.56;101788.70;1887766;76;21001;-43
2022/12/15 06:01:19;;;;;;;15.38;6.65;;;;;;;1.70;73.58;101786.13;1887979;76;21034;-45
2022/12/15 06:03:48;;;;;;;24.07;8.75;;;;;;;1.67;73.58;101790.41;1887947;76;21021;-44
2022/12/15 06:06:17;;;;;;;26.45;9.75;;;;;;;1.62;73.65;101783.83;1887842;76;21021;-44
2022/12/15 06:08:46;;;;;;;20.40;7.60;;;;;;;1.62;73.63;101784.27;1855710;76;21050;-45
2022/12/15 06:11:16;;;;;;;18.25;6.25;;;;;;;1.68;73.60;101783.08;1853313;77;21059;-43
2022/12/15 06:13:45;;;;;;;7.85;3.90;;;;;;;1.69;73.63;101783.50;1854208;77;21051;-46
2022/12/15 06:16:16;;;;;;;18.92;7.40;;;;;;;1.67;73.73;101780.88;1854214;77;21058;-43
2022/12/15 06:18:49;;;;;;;27.25;9.03;;;;;;;1.66;73.85;101779.55;1851597;77;21054;-44
2022/12/15 06:21:20;;;;;;;13.93;4.97;;;;;;;1.73;73.77;101783.59;1854283;77;21113;-44
2022/12/15 06:23:49;;;;;;;19.95;6.50;;;;;;;1.76;73.75;101773.66;1854340;77;21038;-44
2022/12/15 06:26:29;;;;;;;25.77;7.55;;;;;;;1.80;73.66;101771.54;1854235;77;21038;-47
2022/12/15 06:29:01;;;;;;;19.07;7.45;;;;;;;1.83;73.62;101770.29;1854027;77;21082;-43
2022/12/15 06:31:31;;;;;;;19.05;8.05;;;;;;;1.83;73.62;101768.13;1854240;77;21133;-44
2022/12/15 06:33:59;;;;;;;18.42;5.95;;;;;;;1.82;73.55;101763.34;1854202;77;21461;-44
2022/12/15 06:36:29;;;;;;;15.43;5.35;;;;;;;1.84;73.62;101768.13;1854266;77;21050;-43
2022/12/15 06:39:03;;;;;;;25.43;9.40;;;;;;;1.80;73.70;101766.34;1854072;77;21481;-44
2022/12/15 06:41:32;;;;;;;24.50;5.75;;;;;;;1.71;73.81;101772.27;1854349;77;21038;-45
2022/12/15 06:44:01;;;;;;;20.82;6.97;;;;;;;1.64;73.94;101770.88;1854207;77;21169;-44
2022/12/15 06:46:32;;;;;;;16.42;8.30;;;;;;;1.62;74.10;101773.88;1854199;77;21497;-43
2022/12/15 06:49:01;;;;;;;32.33;12.18;;;;;;;1.65;74.10;101759.66;1846582;77;21133;-44
2022/12/15 06:51:29;;;;;;;20.82;7.53;;;;;;;1.69;74.13;101766.63;1819985;79;21062;-43
2022/12/15 06:53:59;;;;;;;10.03;4.55;;;;;;;1.73;74.05;101765.81;1819940;77;21050;-44
2022/12/15 06:56:30;;;;;;;16.48;6.97;;;;;;;1.74;73.98;101763.67;1820087;79;21607;-44
2022/12/15 06:58:59;;;;;;;19.77;10.00;;;;;;;1.77;73.90;101754.64;1822974;77;21074;-45
2022/12/15 07:01:29;;;;;;;25.00;8.58;;;;;;;1.80;73.85;101757.26;1854157;77;21160;-44
2022/12/15 07:04:04;;;;;;;18.30;7.83;;;;;;;1.82;73.80;101759.44;1854041;77;21026;-44
2022/12/15 07:06:39;;;;;;;22.93;9.08;;;;;;;1.85;73.77;101754.30;1853975;77;21062;-47
2022/12/15 07:09:10;;;;;;;26.42;8.63;;;;;;;1.86;73.74;101760.36;1881527;76;21057;-46
2022/12/15 07:11:39;;;;;;;17.30;7.05;;;;;;;1.88;73.71;101759.95;1884638;76;21061;-93
2022/12/15 07:14:10;;;;;;;21.35;8.25;;;;;;;1.92;73.66;101756.56;1886197;76;21033;-93
2022/12/15 07:16:39;;;;;;;17.00;7.08;;;;;;;1.96;73.63;101755.74;1886257;76;21112;-44
2022/12/15 07:19:11;;;;;;;23.57;9.75;;;;;;;2.00;73.63;101750.16;1886139;76;20990;-45
2022/12/15 07:21:40;;;;;;;23.95;6.67;;;;;;;1.99;73.73;101747.11;1884930;76;21093;-44
2022/12/15 07:24:11;;;;;;;30.45;9.85;;;;;;;1.96;73.83;101739.30;1886155;76;21030;-44
2022/12/15 07:26:41;;;;;;;33.10;10.40;;;;;;;1.97;73.87;101741.02;1886413;76;21084;-45
2022/12/15 07:29:10;;;;;;;32.58;9.33;;;;;;;1.96;73.91;101743.19;1886213;76;21019;-44
2022/12/15 07:31:39;;;;;;;23.98;9.43;;;;;;;1.93;74.01;101740.97;1884939;76;21033;-44
2022/12/15 07:34:08;;;;;;;35.00;10.50;;;;;;;1.98;74.04;101740.19;1886179;76;21128;-46
2022/12/15 07:36:37;;;;;;;20.15;8.30;;;;;;;2.05;74.03;101744.60;1887612;76;21050;-45
2022/12/15 07:39:06;;;;;;;24.98;9.93;;;;;;;1.95;74.29;101741.00;1887950;76;21123;-46
2022/12/15 07:41:35;;;;;;;31.25;10.65;;;;;;;1.93;74.37;101747.47;1886469;76;21131;-44
2022/12/15 07:44:05;;;;;;;27.55;10.60;;;;;;;1.89;74.45;101737.90;1886096;76;21030;-45
2022/12/15 07:46:33;;;;;;;29.25;10.48;;;;;;;1.86;74.63;101735.28;1886175;76;20995;-46
2022/12/15 07:49:02;;;;;;;23.55;8.70;;;;;;;1.88;74.82;101730.08;1886199;76;21053;-46
2022/12/15 07:51:31;;;;;;;30.75;11.12;;;;;;;1.95;74.73;101721.52;1884934;76;21049;-46
2022/12/15 07:54:00;;;;;;;21.35;8.98;;;;;;;2.02;74.60;101715.55;1887960;76;21102;-44
2022/12/15 07:56:28;;;;;;;23.25;9.15;;;;;;;2.12;74.40;101713.91;1887968;76;20993;-46
2022/12/15 07:58:58;;;;;;;30.77;10.48;;;;;;;2.18;74.20;101706.21;1888022;76;20986;-44
2022/12/15 08:01:27;;;;;;;34.75;8.95;;;;;;;2.23;74.14;101698.05;1887945;76;21613;-46
2022/12/15 08:03:56;;;;;;;29.63;9.68;;;;;;;2.36;74.08;101700.34;1888143;76;20998;-45
2022/12/15 08:06:25;;;;;;;25.77;10.30;;;;;;;2.37;74.03;101690.81;1887956;76;21902;-48
2022/12/15 08:08:54;;;;;;;41.92;11.93;;;;;;;2.37;73.96;101680.41;1888062;76;21518;-44
2022/12/15 08:11:24;;;;;;;26.48;9.68;;;;;;;2.42;73.79;101680.90;1887985;76;21002;-45
2022/12/15 08:13:53;;;;;;;39.83;9.88;;;;;;;2.54;73.73;101681.43;1888141;76;21018;-45
2022/12/15 08:16:22;;;;;;;31.00;10.35;;;;;;;2.55;73.82;101677.98;1887965;76;21071;-46
2022/12/15 08:18:51;;;;;;;22.35;9.45;;;;;;;2.58;73.81;101677.99;1888155;76;21499;-44
2022/12/15 08:21:20;;;;;;;26.48;9.35;;;;;;;2.65;73.75;101678.49;1888058;76;21005;-45
2022/12/15 08:23:49;;;;;;;25.75;10.65;;;;;;;2.72;73.58;101672.06;1887841;76;21092;-47
2022/12/15 08:26:19;;;;;;;17.40;7.37;;;;;;;2.79;73.54;101668.66;1888116;76;21009;-45
2022/12/15 08:28:48;;;;;;;33.08;11.43;;;;;;;2.84;73.40;101659.13;1888037;76;21150;-44
2022/12/15 08:31:20;;;;;;;24.82;9.65;;;;;;;2.78;73.34;101656.06;1887983;76;21052;-45
2022/12/15 08:33:49;;;;;;;27.90;9.30;;;;;;;2.64;73.61;101664.20;1885633;76;21107;-44
2022/12/15 08:36:19;;;;;;;42.80;9.10;;;;;;;2.58;73.78;101653.73;1886213;76;21002;-47
2022/12/15 08:38:48;;;;;;;28.57;10.60;;;;;;;2.57;74.00;101642.47;1886252;76;21022;-45
2022/12/15 08:41:23;;;;;;;16.80;7.72;;;;;;;2.66;73.87;101647.74;1886148;76;21042;-45
2022/12/15 08:43:53;;;;;;;20.45;8.88;;;;;;;2.71;73.91;101630.86;1886991;76;21025;-44
2022/12/15 08:46:24;;;;;;;12.70;6.22;;;;;;;2.85;73.72;101632.28;1887988;76;21510;-47
2022/12/15 08:48:53;;;;;;;20.40;7.83;;;;;;;2.89;73.56;101631.44;1887892;76;21061;-46
2022/12/15 08:51:24;;;;;;;29.37;9.40;;;;;;;2.84;73.48;101624.91;1887962;76;21523;-44
2022/12/15 08:53:53;;;;;;;19.12;6.70;;;;;;;2.90;73.55;101614.54;1887878;76;21096;-45
2022/12/15 08:56:23;;;;;;;28.27;11.38;;;;;;;3.03;73.42;101623.73;1888023;76;21030;-45
2022/12/15 08:58:57;;;;;;;28.45;9.35;;;;;;;3.05;73.22;101609.00;1888109;76;21468;-48
2022/12/15 09:01:28;;;;;;;28.52;9.88;;;;;;;3.06;73.20;101611.61;1887927;76;21166;-46
2022/12/15 09:03:58;;;;;;;12.50;5.20;;;;;;;3.06;73.12;101612.92;1887877;76;21445;-47
2022/12/15 09:06:31;;;;;;;17.37;7.62;;;;;;;3.04;73.33;101613.34;1856216;77;21483;-45
2022/12/15 09:09:03;;;;;;;25.92;11.22;;;;;;;3.03;73.29;101620.69;1851712;77;21224;-46
2022/12/15 09:11:31;;;;;;;31.68;9.18;;;;;;;3.06;73.32;101612.02;1823709;79;21086;-45
2022/12/15 09:14:01;;;;;;;22.45;9.35;;;;;;;3.17;73.23;101610.79;1823747;77;21058;-46
2022/12/15 09:16:30;;;;;;;14.65;5.53;;;;;;;3.16;73.28;101603.86;1850331;77;21651;-44
2022/12/15 09:18:59;;;;;;;26.87;9.60;;;;;;;3.18;73.39;101601.69;1854295;77;21543;-47
2022/12/15 09:21:29;;;;;;;24.23;9.18;;;;;;;3.13;73.38;101596.02;1854380;77;21039;-47
2022/12/15 09:24:00;;;;;;;25.62;9.33;;;;;;;3.13;73.43;101589.52;1854348;77;21038;-45
2022/12/15 09:26:31;;;;;;;31.00;9.48;;;;;;;3.21;73.35;101588.70;1854123;77;21738;-45
2022/12/15 09:29:00;;;;;;;28.47;9.98;;;;;;;3.30;73.19;101583.95;1854312;77;21046;-46
2022/12/15 09:31:31;;;;;;;33.08;10.72;;;;;;;3.38;73.04;101578.36;1854258;77;21054;-45
2022/12/15 09:34:01;;;;;;;28.92;10.30;;;;;;;3.43;72.89;101573.16;1854374;77;21042;-47
2022/12/15 09:36:31;;;;;;;27.07;10.65;;;;;;;3.50;72.78;101570.16;1854110;77;21650;-49
2022/12/15 09:39:04;;;;;;;32.65;11.18;;;;;;;3.51;72.70;101567.56;1854222;77;21532;-46
2022/12/15 09:41:36;;;;;;;32.60;11.40;;;;;;;3.53;72.71;101559.77;1854354;77;21035;-45
2022/12/15 09:44:13;;;;;;;30.52;12.33;;;;;;;3.56;72.72;101554.54;1854320;77;21074;-47
2022/12/15 09:46:57;;;;;;;20.92;8.55;;;;;;;3.69;72.73;101540.71;1854277;77;21058;-47
2022/12/15 09:49:37;;;;;;;27.58;10.80;;;;;;;3.73;72.58;101537.23;1853947;77;21125;-44
2022/12/15 09:52:15;;;;;;;18.02;7.17;;;;;;;3.62;72.43;101538.95;1854266;77;21090;-45
2022/12/15 09:54:46;;;;;;;17.15;7.37;;;;;;;3.50;72.48;101536.30;1854278;77;21078;-44
2022/12/15 09:57:27;;;;;;;19.60;9.20;;;;;;;3.39;72.67;101535.83;1854266;77;21042;-45
2022/12/15 10:00:13;;;;;;;12.63;5.53;;;;;;;3.32;72.86;101531.90;1853765;77;21081;-44
2022/12/15 10:03:08;;;;;;;16.65;5.90;;;;;;;3.21;73.09;101526.65;1853579;76;21059;-45
2022/12/15 10:05:58;;;;;;;26.82;9.50;;;;;;;3.13;73.29;101525.32;1793147;77;21136;-43
2022/12/15 10:08:29;;;;;;;20.45;8.55;;;;;;;3.14;73.55;101526.22;1854346;77;21090;-44
2022/12/15 10:11:01;;;;;;;39.13;11.57;;;;;;;3.25;73.54;101529.28;1876525;76;21045;-45
2022/12/15 10:13:54;;;;;;;13.83;6.80;;;;;;;3.38;73.37;101526.73;1885557;76;21523;-44
2022/12/15 10:16:57;;;;;;;20.08;7.97;;;;;;;3.50;73.17;101524.59;1886277;76;21566;-43
2022/12/15 10:19:41;;;;;;;11.15;4.87;;;;;;;3.60;73.05;101512.04;1855900;77;21565;-44
2022/12/15 10:22:12;;;;;;;22.82;8.05;;;;;;;3.69;73.05;101508.16;1861065;76;21523;-43
2022/12/15 10:24:41;;;;;;;23.18;8.68;;;;;;;3.90;73.03;101502.53;1886485;76;21096;-43
2022/12/15 10:27:19;;;;;;;26.73;9.58;;;;;;;4.00;72.85;101512.07;1887934;76;21033;-44
2022/12/15 10:29:50;;;;;;;20.75;8.58;;;;;;;4.11;72.75;101506.87;1887958;76;21018;-43
2022/12/15 10:32:40;;;;;;;27.07;9.93;;;;;;;4.24;72.58;101502.97;1885883;76;21002;-43
2022/12/15 10:35:17;;;;;;;24.02;9.05;;;;;;;4.22;72.41;101493.39;1798369;77;21037;-43
2022/12/15 10:37:46;;;;;;;9.40;4.55;;;;;;;4.16;72.43;101505.99;1855701;77;21056;-43
2022/12/15 10:40:23;;;;;;;19.62;8.05;;;;;;;4.11;72.55;101500.34;1856143;77;21032;-42
2022/12/15 10:42:52;;;;;;;26.80;10.20;;;;;;;4.03;72.58;101499.05;1849687;76;21102;-46
2022/12/15 10:45:38;;;;;;;27.67;8.75;;;;;;;3.94;72.72;101504.26;1887884;76;21084;-44
2022/12/15 10:48:10;;;;;;;23.12;9.20;;;;;;;3.84;72.84;101500.34;1888147;76;21081;-44
2022/12/15 10:50:39;;;;;;;19.05;6.83;;;;;;;3.79;73.05;101505.98;1885770;76;21440;-45
2022/12/15 10:53:11;;;;;;;20.70;7.83;;;;;;;3.85;73.29;101489.08;1887913;76;21030;-43
2022/12/15 10:55:42;;;;;;;31.45;9.30;;;;;;;3.95;73.26;101486.03;1885768;76;21547;-42
2022/12/15 10:58:20;;;;;;;35.90;11.75;;;;;;;4.07;73.12;101483.84;1868114;76;21155;-46
2022/12/15 11:00:50;;;;;;;10.38;4.50;;;;;;;4.17;73.07;101491.22;1884761;76;21092;-45
2022/12/15 11:03:25;;;;;;;25.15;9.20;;;;;;;4.27;73.11;101479.92;1855773;77;21025;-43
2022/12/15 11:05:56;;;;;;;35.10;10.35;;;;;;;4.35;73.01;101474.69;1856053;77;21037;-42
2022/12/15 11:08:26;;;;;;;36.73;12.28;;;;;;;4.24;72.87;101480.81;1855757;77;21045;-43
2022/12/15 11:13:46;;;;;;;29.82;9.48;;;;;;;4.19;73.23;101492.11;1887749;76;20994;-44
2022/12/15 11:16:17;;;;;;;31.93;11.95;;;;;;;4.15;73.29;101478.20;1875944;76;21530;-44
2022/12/15 11:18:49;;;;;;;33.55;11.70;;;;;;;4.10;73.40;101476.03;1886124;76;21057;-43
2022/12/15 11:21:30;;;;;;;36.93;12.55;;;;;;;4.11;73.41;101471.23;1886685;75;21118;-44
2022/12/15 11:24:10;;;;;;;23.27;8.63;;;;;;;4.22;73.52;101464.30;1919075;75;20975;-44
2022/12/15 11:27:00;;;;;;;32.48;13.08;;;;;;;4.34;73.31;101452.97;1880992;75;21104;-44
2022/12/15 11:29:35;;;;;;;24.12;8.40;;;;;;;4.45;73.06;101455.56;1887327;76;21049;-44
2022/12/15 11:32:04;;;;;;;34.48;12.10;;;;;;;4.51;72.96;101451.63;1887985;76;21456;-43
2022/12/15 11:34:38;;;;;;;33.58;11.48;;;;;;;4.56;72.94;101436.84;1886148;76;21501;-43
2022/12/15 11:37:19;;;;;;;37.75;12.18;;;;;;;4.61;72.96;101435.51;1886272;76;21079;-45
2022/12/15 11:40:23;;;;;;;34.48;12.90;;;;;;;4.61;73.07;101426.37;1883553;76;21527;-47
2022/12/15 11:43:03;;;;;;;28.17;11.43;;;;;;;4.55;73.29;101428.57;1886690;76;21045;-46
2022/12/15 11:46:00;;;;;;;36.68;11.75;;;;;;;4.48;73.66;101424.24;1887997;76;21045;-45
2022/12/15 11:48:50;;;;;;;33.83;11.55;;;;;;;4.49;73.70;101418.17;1827185;76;21133;-47
2022/12/15 11:51:41;;;;;;;17.50;6.78;;;;;;;4.54;73.72;101412.51;1885869;76;21127;-45
2022/12/15 11:54:31;;;;;;;27.00;10.28;;;;;;;4.60;73.73;101411.62;1887871;76;21108;-45
2022/12/15 11:57:36;;;;;;;25.70;9.13;;;;;;;4.59;73.87;101412.06;1887560;75;21096;-43
2022/12/15 12:00:10;;;;;;;27.73;11.35;;;;;;;4.59;74.05;101417.28;1888018;76;21013;-44
2022/12/15 12:02:45;;;;;;;20.57;9.38;;;;;;;4.63;73.96;101421.61;1887928;76;21053;-45
2022/12/15 12:05:25;;;;;;;24.65;10.05;;;;;;;4.69;73.95;101419.86;1889751;75;21026;-46
2022/12/15 12:08:00;;;;;;;24.20;8.08;;;;;;;4.74;73.84;101410.24;1888052;76;21055;-46
2022/12/15 12:10:50;;;;;;;28.05;10.55;;;;;;;4.77;73.89;101407.63;1901995;75;20999;-45
2022/12/15 12:13:40;;;;;;;33.08;11.03;;;;;;;4.82;73.90;101391.08;1908511;75;21532;-46
2022/12/15 12:16:30;;;;;;;24.45;8.93;;;;;;;4.89;73.90;101393.65;1906854;74;21511;-44
2022/12/15 12:19:20;;;;;;;23.73;10.18;;;;;;;4.92;73.91;101387.97;1897420;74;21223;-45
2022/12/15 12:21:52;;;;;;;36.83;12.18;;;;;;;4.93;73.91;101379.73;1912426;75;21065;-47
2022/12/15 12:24:26;;;;;;;29.35;8.40;;;;;;;4.91;73.99;101382.34;1904475;74;21507;-45
2022/12/15 12:27:00;;;;;;;25.37;8.48;;;;;;;4.91;74.01;101387.56;1856137;77;21017;-44
2022/12/15 12:29:34;;;;;;;28.95;10.35;;;;;;;4.91;74.03;101386.27;1856059;77;21026;-44
2022/12/15 12:32:08;;;;;;;27.35;9.45;;;;;;;4.92;74.05;101394.50;1856033;77;21062;-44
2022/12/15 12:34:55;;;;;;;25.40;11.25;;;;;;;4.94;74.13;101401.02;1856154;77;21028;-45
2022/12/15 12:37:39;;;;;;;25.08;9.90;;;;;;;4.97;74.13;101395.80;1856069;77;21439;-45
2022/12/15 12:40:39;;;;;;;26.95;10.40;;;;;;;4.98;74.31;101404.04;1855612;77;21092;-44
2022/12/15 12:43:19;;;;;;;31.50;11.10;;;;;;;5.00;74.24;101408.39;1856133;77;21056;-44
2022/12/15 12:46:01;;;;;;;24.40;9.98;;;;;;;5.04;74.15;101405.33;1850782;77;21569;-44
2022/12/15 12:48:45;;;;;;;28.70;10.45;;;;;;;5.05;74.09;101395.75;1855910;77;21478;-46
2022/12/15 12:51:14;;;;;;;;;;;;;;;5.08;74.04;101395.74;1859834;76;21435;-45
2022/12/15 12:53:43;;;;;;;26.82;9.10;;;;;;;5.10;74.05;101388.31;1857784;76;20123;-45
2022/12/15 12:56:34;;;;;;;24.50;9.55;;;;;;;5.09;74.02;101382.69;1854727;77;21021;-45
2022/12/15 12:59:23;;;;;;;32.10;11.22;;;;;;;5.11;73.99;101383.95;1854418;77;21468;-47
2022/12/15 13:01:51;;;;;;;28.12;9.83;;;;;;;5.14;73.95;101386.56;1854719;77;21583;-46
2022/12/15 13:04:32;;;;;;;28.62;11.33;;;;;;;5.16;73.93;101393.48;1864871;76;21018;-46
2022/12/15 13:07:07;;;;;;;30.05;11.97;;;;;;;5.17;73.93;101395.23;1888055;76;21022;-47
2022/12/15 13:09:44;;;;;;;33.65;11.22;;;;;;;5.20;74.00;101395.23;1887245;76;21108;-45
2022/12/15 13:12:47;;;;;;;24.65;9.98;;;;;;;5.23;74.05;101393.03;1874608;76;21157;-47
2022/12/15 13:15:25;;;;;;;28.30;11.10;;;;;;;5.21;74.15;101388.26;1854079;77;21047;-56
2022/12/15 13:18:16;;;;;;;32.65;10.70;;;;;;;5.23;74.12;101387.80;1834533;77;21651;-55
2022/12/15 13:20:47;;;;;;;28.70;10.03;;;;;;;5.20;74.21;101377.38;1852867;76;21509;-55
2022/12/15 13:23:26;;;;;;;30.10;10.13;;;;;;;5.20;74.28;101370.84;1851535;76;21445;-56
2022/12/15 13:26:04;;;;;;;30.82;10.88;;;;;;;5.21;74.22;101370.84;1853301;77;21156;-56
2022/12/15 13:28:38;;;;;;;27.98;9.30;;;;;;;5.21;74.18;101359.53;1838782;76;21124;-55
2022/12/15 13:31:28;;;;;;;36.75;11.95;;;;;;;5.20;74.18;101356.48;1854348;77;21051;-55
2022/12/15 13:34:00;;;;;;;16.25;6.78;;;;;;;5.17;74.28;101340.86;1854243;77;21026;-56
2022/12/15 13:36:43;;;;;;;29.70;12.28;;;;;;;5.15;74.36;101334.78;1853239;77;21090;-56
2022/12/15 13:39:17;;;;;;;28.70;10.55;;;;;;;5.12;74.49;101336.11;1854470;77;21050;-55
2022/12/15 13:41:52;;;;;;;30.40;11.55;;;;;;;5.12;74.50;101337.41;1854177;76;21176;-56
2022/12/15 13:44:29;;;;;;;28.00;11.53;;;;;;;5.12;74.50;101337.41;1854360;76;21023;-56
2022/12/15 13:47:01;;;;;;;30.82;11.05;;;;;;;5.14;74.58;101344.79;1852513;76;21269;-56
2022/12/15 13:49:32;;;;;;;28.42;10.58;;;;;;;5.14;74.65;101340.42;1853037;77;21154;-56
2022/12/15 13:52:04;;;;;;;30.82;11.05;;;;;;;5.16;74.60;101333.45;1854258;77;21469;-56
2022/12/15 13:54:36;;;;;;;27.20;10.10;;;;;;;5.20;74.56;101321.23;1853270;76;21043;-56
2022/12/15 13:57:19;;;;;;;26.68;11.00;;;;;;;5.21;74.43;101314.70;1853443;76;21063;-54
2022/12/15 13:59:50;;;;;;;31.82;13.43;;;;;;;5.21;74.37;101304.27;1854376;77;21041;-55
2022/12/15 14:02:28;;;;;;;34.88;11.65;;;;;;;5.20;74.34;101305.57;1851975;77;21542;-56
2022/12/15 14:05:21;;;;;;;34.20;13.18;;;;;;;5.17;74.32;101308.23;1852752;77;21035;-55
2022/12/15 14:07:56;;;;;;;23.42;9.38;;;;;;;5.14;74.48;101317.38;1853060;77;21114;-55
2022/12/15 14:10:37;;;;;;;27.70;10.63;;;;;;;5.13;74.51;101313.91;1852862;77;21071;-55
2022/12/15 14:13:24;;;;;;;26.73;11.80;;;;;;;5.14;74.51;101316.08;1852619;76;21164;-56
2022/12/15 14:15:56;;;;;;;30.37;11.00;;;;;;;5.15;74.57;101329.56;1852662;77;21023;-57
2022/12/15 14:18:33;;;;;;;29.12;10.75;;;;;;;5.13;74.72;101338.71;1852690;77;21067;-57
2022/12/15 14:21:08;;;;;;;31.87;11.43;;;;;;;5.16;74.79;101330.84;1852783;77;21046;-56
2022/12/15 14:23:43;;;;;;;35.08;13.30;;;;;;;5.17;74.76;101319.53;1851297;77;21035;-57